createdAt,value
2018-09-02T00:00:10.291Z,10.57
2018-09-02T00:02:39.468Z,10.57
2018-09-02T00:05:09.111Z,10.61
2018-09-02T00:07:38.264Z,10.49
2018-09-02T00:10:09.785Z,10.29
2018-09-02T00:12:40.679Z,10.61
2018-09-02T00:15:10.096Z,10.32
2018-09-02T00:17:40.253Z,10.69
2018-09-02T00:20:09.640Z,10.42
2018-09-02T00:22:39.858Z,10.38
2018-09-02T00:25:09.692Z,10.22
2018-09-02T00:27:39.872Z,10.06
2018-09-02T00:30:10.223Z,10.33
2018-09-02T00:32:40.385Z,10.38
2018-09-02T00:35:09.722Z,10.12
2018-09-02T00:37:39.840Z,10.18
2018-09-02T00:40:09.915Z,10.47
2018-09-02T00:42:39.897Z,10.48
2018-09-02T00:45:11.224Z,10.50
2018-09-02T00:47:40.948Z,10.57
2018-09-02T00:50:10.919Z,10.37
2018-09-02T00:52:40.685Z,9.89
2018-09-02T00:55:09.280Z,9.74
2018-09-02T00:57:37.857Z,9.94
2018-09-02T01:00:06.780Z,9.71
2018-09-02T01:02:35.325Z,9.40
2018-09-02T01:05:03.907Z,9.82
2018-09-02T01:07:32.464Z,10.02
2018-09-02T01:10:00.997Z,10.12
2018-09-02T01:12:29.581Z,9.88
2018-09-02T01:15:04.709Z,9.74
2018-09-02T01:17:33.273Z,9.65
2018-09-02T01:20:01.790Z,9.42
2018-09-02T01:22:30.353Z,9.75
2018-09-02T01:24:59.189Z,10.10
2018-09-02T01:27:27.705Z,10.11
2018-09-02T01:29:56.253Z,9.64
2018-09-02T01:32:24.781Z,9.49
2018-09-02T01:34:53.316Z,9.50
2018-09-02T01:37:21.844Z,9.83
2018-09-02T01:39:50.396Z,10.03
2018-09-02T01:42:20.266Z,9.67
2018-09-02T01:44:49.453Z,9.71
2018-09-02T01:47:17.972Z,9.24
2018-09-02T01:49:46.509Z,9.41
2018-09-02T01:52:15.042Z,9.30
2018-09-02T01:54:43.585Z,9.22
2018-09-02T01:57:12.201Z,9.21
2018-09-02T01:59:40.793Z,9.20
2018-09-02T02:02:09.342Z,9.21
2018-09-02T02:04:42.731Z,9.05
2018-09-02T02:07:12.932Z,9.20
2018-09-02T02:09:41.844Z,9.19
2018-09-02T02:12:10.344Z,9.13
2018-09-02T02:14:39.485Z,9.27
2018-09-02T02:17:08.015Z,9.21
2018-09-02T02:19:36.608Z,9.18
2018-09-02T02:22:05.128Z,9.02
2018-09-02T02:24:33.656Z,9.23
2018-09-02T02:27:02.182Z,9.59
2018-09-02T02:29:30.728Z,9.09
2018-09-02T02:31:59.236Z,9.11
2018-09-02T02:34:34.356Z,8.99
2018-09-02T02:37:02.963Z,9.40
2018-09-02T02:39:31.498Z,9.06
2018-09-02T02:42:00.026Z,8.91
2018-09-02T02:44:34.812Z,9.03
2018-09-02T02:47:07.126Z,9.05
2018-09-02T02:49:35.774Z,8.96
2018-09-02T02:52:04.292Z,9.05
2018-09-02T02:54:32.817Z,9.32
2018-09-02T02:57:01.333Z,9.15
2018-09-02T02:59:29.899Z,9.05
2018-09-02T03:01:58.653Z,9.12
2018-09-02T03:04:27.194Z,9.26
2018-09-02T03:06:55.709Z,9.21
2018-09-02T03:09:24.236Z,9.14
2018-09-02T03:11:52.789Z,9.01
2018-09-02T03:14:21.605Z,9.10
2018-09-02T03:16:50.107Z,8.79
2018-09-02T03:19:18.684Z,8.82
2018-09-02T03:21:47.201Z,8.63
2018-09-02T03:24:15.741Z,8.56
2018-09-02T03:26:44.244Z,8.81
2018-09-02T03:29:12.775Z,9.17
2018-09-02T03:31:41.285Z,8.75
2018-09-02T03:34:09.832Z,8.35
2018-09-02T03:36:38.340Z,8.30
2018-09-02T03:39:07.192Z,8.33
2018-09-02T03:41:35.757Z,8.48
2018-09-02T03:44:04.273Z,8.74
2018-09-02T03:46:32.816Z,8.77
2018-09-02T03:49:01.365Z,8.82
2018-09-02T03:51:33.211Z,9.05
2018-09-02T03:54:04.090Z,8.80
2018-09-02T03:56:35.280Z,8.96
2018-09-02T03:59:03.929Z,8.95
2018-09-02T04:01:32.688Z,8.76
2018-09-02T04:04:01.189Z,9.28
2018-09-02T04:06:29.731Z,9.37
2018-09-02T04:08:58.232Z,9.19
2018-09-02T04:11:26.807Z,8.81
2018-09-02T04:13:55.373Z,8.88
2018-09-02T04:16:23.920Z,9.08
2018-09-02T04:18:52.420Z,9.05
2018-09-02T04:21:20.988Z,9.10
2018-09-02T04:23:49.512Z,8.58
2018-09-02T04:26:18.080Z,8.62
2018-09-02T04:28:46.596Z,8.75
2018-09-02T04:31:15.137Z,8.90
2018-09-02T04:33:43.681Z,8.97
2018-09-02T04:36:12.221Z,9.13
2018-09-02T04:38:40.712Z,9.05
2018-09-02T04:41:09.972Z,8.90
2018-09-02T04:43:38.473Z,8.60
2018-09-02T04:46:07.116Z,8.61
2018-09-02T04:48:35.630Z,8.42
2018-09-02T04:51:04.178Z,8.52
2018-09-02T04:53:32.698Z,8.56
2018-09-02T04:56:01.569Z,8.74
2018-09-02T04:58:30.085Z,8.91
2018-09-02T05:00:58.656Z,8.54
2018-09-02T05:03:27.172Z,8.16
2018-09-02T05:05:55.709Z,8.66
2018-09-02T05:08:24.237Z,8.44
2018-09-02T05:10:52.786Z,8.85
2018-09-02T05:13:21.303Z,8.77
2018-09-02T05:15:49.834Z,8.57
2018-09-02T05:18:18.408Z,8.50
2018-09-02T05:20:46.945Z,8.57
2018-09-02T05:23:15.444Z,8.59
2018-09-02T05:25:44.075Z,8.44
2018-09-02T05:28:12.604Z,8.54
2018-09-02T05:30:41.173Z,9.08
2018-09-02T05:33:10.192Z,9.28
2018-09-02T05:35:38.683Z,9.27
2018-09-02T05:38:07.215Z,9.23
2018-09-02T05:40:35.771Z,9.07
2018-09-02T05:43:04.311Z,9.10
2018-09-02T05:45:32.809Z,9.10
2018-09-02T05:48:01.341Z,9.19
2018-09-02T05:50:30.189Z,9.32
2018-09-02T05:52:58.713Z,9.66
2018-09-02T05:55:27.225Z,9.39
2018-09-02T05:57:55.757Z,9.59
2018-09-02T06:00:24.296Z,9.88
2018-09-02T06:02:52.921Z,10.14
2018-09-02T06:05:26.169Z,10.26
2018-09-02T06:07:56.176Z,10.49
2018-09-02T06:10:25.005Z,10.69
2018-09-02T06:12:54.272Z,10.75
2018-09-02T06:15:22.777Z,10.81
2018-09-02T06:17:51.341Z,10.80
2018-09-02T06:20:19.881Z,10.76
2018-09-02T06:22:48.416Z,10.82
2018-09-02T06:25:16.984Z,11.00
2018-09-02T06:27:45.845Z,11.12
2018-09-02T06:30:14.398Z,11.30
2018-09-02T06:32:42.995Z,11.35
2018-09-02T06:35:11.465Z,11.54
2018-09-02T06:37:40.434Z,11.65
2018-09-02T06:40:09.041Z,11.66
2018-09-02T06:42:37.601Z,11.72
2018-09-02T06:45:06.166Z,11.85
2018-09-02T06:47:34.700Z,11.95
2018-09-02T06:50:03.216Z,12.13
2018-09-02T06:52:31.767Z,12.28
2018-09-02T06:55:00.292Z,12.41
2018-09-02T06:57:29.717Z,12.44
2018-09-02T07:00:04.893Z,12.51
2018-09-02T07:02:33.631Z,12.76
2018-09-02T07:05:02.150Z,12.96
2018-09-02T07:07:30.807Z,13.03
2018-09-02T07:09:59.256Z,13.11
2018-09-02T07:12:27.850Z,13.23
2018-09-02T07:14:56.428Z,13.39
2018-09-02T07:17:24.976Z,13.50
2018-09-02T07:19:53.502Z,13.68
2018-09-02T07:22:22.028Z,13.69
2018-09-02T07:24:50.565Z,14.03
2018-09-02T07:27:19.120Z,14.07
2018-09-02T07:29:47.666Z,14.32
2018-09-02T07:32:16.197Z,14.90
2018-09-02T07:34:44.865Z,14.81
2018-09-02T07:37:13.497Z,14.86
2018-09-02T07:39:42.055Z,15.20
2018-09-02T07:42:13.611Z,15.44
2018-09-02T07:44:48.341Z,15.28
2018-09-02T07:47:22.988Z,15.50
2018-09-02T07:49:51.773Z,15.39
2018-09-02T07:52:20.307Z,15.68
2018-09-02T07:54:48.858Z,15.66
2018-09-02T07:57:17.375Z,15.95
2018-09-02T07:59:53.106Z,15.97
2018-09-02T08:02:21.953Z,16.10
2018-09-02T08:04:50.498Z,16.38
2018-09-02T08:07:19.255Z,16.56
2018-09-02T08:09:51.189Z,16.50
2018-09-02T08:12:20.021Z,16.70
2018-09-02T08:14:48.604Z,16.79
2018-09-02T08:17:19.306Z,16.78
2018-09-02T08:19:48.493Z,16.80
2018-09-02T08:22:17.885Z,17.02
2018-09-02T08:24:46.525Z,17.04
2018-09-02T08:27:22.811Z,17.14
2018-09-02T08:29:55.865Z,17.21
2018-09-02T08:32:30.321Z,17.30
2018-09-02T08:35:10.130Z,17.62
2018-09-02T08:37:43.625Z,17.65
2018-09-02T08:40:17.323Z,17.60
2018-09-02T08:42:52.705Z,17.75
2018-09-02T08:45:22.642Z,17.79
2018-09-02T08:47:51.935Z,17.98
2018-09-02T08:50:21.540Z,17.84
2018-09-02T08:52:50.050Z,17.81
2018-09-02T08:55:24.047Z,17.92
2018-09-02T08:57:57.275Z,17.72
2018-09-02T09:00:26.905Z,17.79
2018-09-02T09:02:58.343Z,18.01
2018-09-02T09:05:27.628Z,17.99
2018-09-02T09:07:57.993Z,18.04
2018-09-02T09:10:27.928Z,18.19
2018-09-02T09:13:03.216Z,18.24
2018-09-02T09:15:32.009Z,18.19
2018-09-02T09:18:00.530Z,18.23
2018-09-02T09:20:33.115Z,18.26
2018-09-02T09:23:08.055Z,18.20
2018-09-02T09:25:38.569Z,18.24
2018-09-02T09:28:10.102Z,18.36
2018-09-02T09:30:43.817Z,18.41
2018-09-02T09:33:14.608Z,18.51
2018-09-02T09:35:43.916Z,18.41
2018-09-02T09:38:13.014Z,18.36
2018-09-02T09:40:44.611Z,18.42
2018-09-02T09:43:18.647Z,18.57
2018-09-02T09:45:50.539Z,18.70
2018-09-02T09:48:21.108Z,18.83
2018-09-02T09:50:50.824Z,18.95
2018-09-02T09:53:21.072Z,18.89
2018-09-02T09:55:50.480Z,18.55
2018-09-02T09:58:22.429Z,18.61
2018-09-02T10:00:52.636Z,18.81
2018-09-02T10:03:25.206Z,18.80
2018-09-02T10:05:58.751Z,18.73
2018-09-02T10:08:30.020Z,18.56
2018-09-02T10:11:00.788Z,18.77
2018-09-02T10:13:36.161Z,18.97
2018-09-02T10:16:09.889Z,19.05
2018-09-02T10:18:40.007Z,18.92
2018-09-02T10:21:10.838Z,18.98
2018-09-02T10:23:43.807Z,18.65
2018-09-02T10:26:16.651Z,18.64
2018-09-02T10:28:51.344Z,18.85
2018-09-02T10:31:26.555Z,19.14
2018-09-02T10:34:00.757Z,19.32
2018-09-02T10:36:31.080Z,19.37
2018-09-02T10:39:00.260Z,19.36
2018-09-02T10:41:32.349Z,19.67
2018-09-02T10:44:07.523Z,19.45
2018-09-02T10:46:41.461Z,19.12
2018-09-02T10:54:04.304Z,19.43
2018-09-02T10:56:33.055Z,19.46
2018-09-02T10:59:01.652Z,19.61
2018-09-02T11:01:36.679Z,19.81
2018-09-02T11:04:05.468Z,19.55
2018-09-02T11:06:34.157Z,19.34
2018-09-02T11:09:03.701Z,19.42
2018-09-02T11:11:34.497Z,19.55
2018-09-02T11:14:03.924Z,19.68
2018-09-02T11:16:41.094Z,19.74
2018-09-02T11:19:12.930Z,19.70
2018-09-02T11:21:43.314Z,19.74
2018-09-02T11:24:15.998Z,19.70
2018-09-02T11:26:44.709Z,19.70
2018-09-02T11:29:13.273Z,20.06
2018-09-02T11:31:41.915Z,19.93
2018-09-02T11:34:10.543Z,19.89
2018-09-02T11:36:42.890Z,20.21
2018-09-02T11:39:11.873Z,20.10
2018-09-02T11:41:40.432Z,20.22
2018-09-02T11:44:09.306Z,20.34
2018-09-02T11:46:37.944Z,20.57
2018-09-02T11:49:07.419Z,20.05
2018-09-02T11:51:36.026Z,19.69
2018-09-02T11:54:04.563Z,19.79
2018-09-02T11:56:33.097Z,19.48
2018-09-02T11:59:01.648Z,19.71
2018-09-02T12:01:30.276Z,20.06
2018-09-02T12:03:58.844Z,19.97
2018-09-02T12:06:27.413Z,19.96
2018-09-02T12:08:55.933Z,19.96
2018-09-02T12:11:24.468Z,19.74
2018-09-02T12:13:53.082Z,19.87
2018-09-02T12:16:25.274Z,19.83
2018-09-02T12:18:53.792Z,19.76
2018-09-02T12:21:22.586Z,19.81
2018-09-02T12:23:51.123Z,19.55
2018-09-02T12:26:19.628Z,19.66
2018-09-02T12:28:48.164Z,19.67
2018-09-02T12:31:16.848Z,19.66
2018-09-02T12:33:45.497Z,19.66
2018-09-02T12:36:13.995Z,19.88
2018-09-02T12:38:49.333Z,19.98
2018-09-02T12:41:17.900Z,19.79
2018-09-02T12:43:46.572Z,19.85
2018-09-02T12:46:17.145Z,19.85
2018-09-02T12:48:45.913Z,19.86
2018-09-02T12:51:14.497Z,20.00
2018-09-02T12:53:43.041Z,19.80
2018-09-02T12:56:12.153Z,19.89
2018-09-02T12:58:40.766Z,19.75
2018-09-02T13:01:09.282Z,19.78
2018-09-02T13:03:37.825Z,19.79
2018-09-02T13:06:06.340Z,19.69
2018-09-02T13:08:34.876Z,19.45
2018-09-02T13:11:03.388Z,19.50
2018-09-02T13:13:31.940Z,19.55
2018-09-02T13:16:00.697Z,19.58
2018-09-02T13:18:29.233Z,19.59
2018-09-02T13:20:57.751Z,19.59
2018-09-02T13:23:26.320Z,19.67
2018-09-02T13:25:54.833Z,19.59
2018-09-02T13:28:23.367Z,19.63
2018-09-02T13:30:51.881Z,19.72
2018-09-02T13:33:20.428Z,19.75
2018-09-02T13:35:48.929Z,19.72
2018-09-02T13:38:17.471Z,19.67
2018-09-02T13:40:45.976Z,19.55
2018-09-02T13:43:14.622Z,19.57
2018-09-02T13:45:43.132Z,19.63
2018-09-02T13:48:11.793Z,19.59
2018-09-02T13:50:40.345Z,19.56
2018-09-02T13:53:08.896Z,19.44
2018-09-02T13:55:37.800Z,19.42
2018-09-02T13:58:06.449Z,19.45
2018-09-02T14:00:35.009Z,19.44
2018-09-02T14:03:03.572Z,19.36
2018-09-02T14:05:32.093Z,19.35
2018-09-02T14:08:00.819Z,19.47
2018-09-02T14:10:29.216Z,19.32
2018-09-02T14:12:57.728Z,19.41
2018-09-02T14:15:26.334Z,19.61
2018-09-02T14:17:54.912Z,19.64
2018-09-02T14:20:23.448Z,19.72
2018-09-02T14:22:52.000Z,19.67
2018-09-02T14:25:20.533Z,19.65
2018-09-02T14:27:49.036Z,19.57
2018-09-02T14:30:17.589Z,19.46
2018-09-02T14:32:46.249Z,19.63
2018-09-02T14:35:14.796Z,19.53
2018-09-02T14:37:43.328Z,19.45
2018-09-02T14:40:11.868Z,19.49
2018-09-02T14:42:40.374Z,19.49
2018-09-02T14:45:10.237Z,19.47
2018-09-02T14:47:38.752Z,19.45
2018-09-02T14:50:07.533Z,19.46
2018-09-02T14:52:36.048Z,19.43
2018-09-02T14:55:04.668Z,19.37
2018-09-02T14:57:33.575Z,19.31
2018-09-02T15:00:02.152Z,19.34
2018-09-02T15:02:30.840Z,19.30
2018-09-02T15:05:00.361Z,19.34
2018-09-02T15:07:28.887Z,19.35
2018-09-02T15:09:59.376Z,19.34
2018-09-02T15:12:32.944Z,19.34
2018-09-02T15:15:02.786Z,19.37
2018-09-02T15:17:32.445Z,19.35
2018-09-02T15:20:02.128Z,19.38
2018-09-02T15:22:31.501Z,19.46
2018-09-02T15:25:00.045Z,19.38
2018-09-02T15:27:29.293Z,19.43
2018-09-02T15:29:57.840Z,19.53
2018-09-02T15:32:26.350Z,19.48
2018-09-02T15:34:54.905Z,19.48
2018-09-02T15:37:23.442Z,19.35
2018-09-02T15:39:51.980Z,19.38
2018-09-02T15:42:20.504Z,19.51
2018-09-02T15:44:49.073Z,19.57
2018-09-02T15:47:17.705Z,19.51
2018-09-02T15:49:46.221Z,19.49
2018-09-02T15:52:14.756Z,19.50
2018-09-02T15:54:43.576Z,19.54
2018-09-02T15:57:13.222Z,19.60
2018-09-02T15:59:41.769Z,19.60
2018-09-02T16:02:10.314Z,19.57
2018-09-02T16:04:38.832Z,19.65
2018-09-02T16:07:07.376Z,19.56
2018-09-02T16:09:35.871Z,19.44
2018-09-02T16:12:04.413Z,19.45
2018-09-02T16:14:32.933Z,19.33
2018-09-02T16:17:01.481Z,19.26
2018-09-02T16:19:29.989Z,19.28
2018-09-02T16:21:58.525Z,19.24
2018-09-02T16:24:27.049Z,19.22
2018-09-02T16:26:55.677Z,19.26
2018-09-02T16:29:24.183Z,19.20
2018-09-02T16:31:52.741Z,19.23
2018-09-02T16:34:21.261Z,19.22
2018-09-02T16:36:49.813Z,19.25
2018-09-02T16:39:18.330Z,19.25
2018-09-02T16:41:46.867Z,19.17
2018-09-02T16:44:15.376Z,19.12
2018-09-02T16:46:43.921Z,19.10
2018-09-02T16:49:13.418Z,19.08
2018-09-02T16:51:41.961Z,19.06
2018-09-02T16:54:11.658Z,19.01
2018-09-02T16:56:40.177Z,19.00
2018-09-02T16:59:08.780Z,18.97
2018-09-02T17:01:37.341Z,18.97
2018-09-02T17:04:08.026Z,18.95
2018-09-02T17:06:36.609Z,18.89
2018-09-02T17:09:09.087Z,18.89
2018-09-02T17:11:38.027Z,18.86
2018-09-02T17:14:06.821Z,18.85
2018-09-02T17:16:35.336Z,18.85
2018-09-02T17:19:08.338Z,18.80
2018-09-02T17:21:36.908Z,18.81
2018-09-02T17:27:02.580Z,18.75
2018-09-02T17:29:51.041Z,18.72
2018-09-02T17:32:36.152Z,18.66
2018-09-02T17:35:04.692Z,18.62
2018-09-02T17:37:37.157Z,18.61
2018-09-02T17:40:07.796Z,18.66
2018-09-02T17:42:36.396Z,18.64
2018-09-02T17:45:04.957Z,18.58
2018-09-02T17:47:33.501Z,18.54
2018-09-02T17:50:02.053Z,18.55
2018-09-02T17:52:30.569Z,18.43
2018-09-02T17:54:59.112Z,18.44
2018-09-02T17:57:27.698Z,18.38
2018-09-02T17:59:56.594Z,18.41
2018-09-02T18:02:38.407Z,18.39
2018-09-02T18:05:07.302Z,18.35
2018-09-02T18:07:36.124Z,18.31
2018-09-02T18:10:04.903Z,18.35
2018-09-02T18:12:38.202Z,18.31
2018-09-02T18:15:07.485Z,18.24
2018-09-02T18:17:36.228Z,18.24
2018-09-02T18:20:04.865Z,18.27
2018-09-02T18:22:33.381Z,18.17
2018-09-02T18:25:01.945Z,18.20
2018-09-02T18:27:32.825Z,18.20
2018-09-02T18:30:01.372Z,18.19
2018-09-02T18:32:31.195Z,18.20
2018-09-02T18:35:00.723Z,18.23
2018-09-02T18:37:29.292Z,18.31
2018-09-02T18:39:58.181Z,18.31
2018-09-02T18:42:27.091Z,18.25
2018-09-02T18:44:55.630Z,18.24
2018-09-02T18:47:24.169Z,18.26
2018-09-02T18:49:52.726Z,18.18
2018-09-02T18:52:21.301Z,18.18
2018-09-02T18:54:49.840Z,18.17
2018-09-02T18:57:18.372Z,18.15
2018-09-02T18:59:46.961Z,18.15
2018-09-02T19:02:15.542Z,18.10
2018-09-02T19:04:44.161Z,18.07
2018-09-02T19:07:12.669Z,18.03
2018-09-02T19:09:41.266Z,17.99
2018-09-02T19:12:09.931Z,17.90
2018-09-02T19:14:38.511Z,17.95
2018-09-02T19:17:07.128Z,17.89
2018-09-02T19:19:35.679Z,17.88
2018-09-02T19:22:04.324Z,17.90
2018-09-02T19:24:33.305Z,17.93
2018-09-02T19:27:01.996Z,17.85
2018-09-02T19:29:30.653Z,17.84
2018-09-02T19:32:01.698Z,17.84
2018-09-02T19:34:30.977Z,17.86
2018-09-02T19:37:01.984Z,17.79
2018-09-02T19:39:31.945Z,17.79
2018-09-02T19:42:03.103Z,17.73
2018-09-02T19:44:31.704Z,17.69
2018-09-02T19:47:03.406Z,17.66
2018-09-02T19:49:32.355Z,17.70
2018-09-02T19:52:00.885Z,17.68
2018-09-02T19:54:29.485Z,17.57
2018-09-02T19:56:58.575Z,17.54
2018-09-02T19:59:27.182Z,17.63
2018-09-02T20:01:55.737Z,17.60
2018-09-02T20:04:24.246Z,17.47
2018-09-02T20:06:52.803Z,17.46
2018-09-02T20:09:24.074Z,17.54
2018-09-02T20:11:53.611Z,17.57
2018-09-02T20:14:22.703Z,17.47
2018-09-02T20:16:51.306Z,17.44
2018-09-02T20:19:19.972Z,17.42
2018-09-02T20:21:48.612Z,17.49
2018-09-02T20:24:17.340Z,17.53
2018-09-02T20:26:46.883Z,17.49
2018-09-02T20:29:16.408Z,17.46
2018-09-02T20:31:45.097Z,17.46
2018-09-02T20:34:14.523Z,17.47
2018-09-02T20:36:43.275Z,17.28
2018-09-02T20:39:12.017Z,17.33
2018-09-02T20:41:40.657Z,17.30
2018-09-02T20:44:09.545Z,17.28
2018-09-02T20:46:39.125Z,17.22
2018-09-02T20:49:08.677Z,17.13
2018-09-02T20:51:37.257Z,17.16
2018-09-02T20:54:06.098Z,17.18
2018-09-02T20:56:36.168Z,17.16
2018-09-02T20:59:04.777Z,17.18
2018-09-02T21:01:36.749Z,17.19
2018-09-02T21:04:06.403Z,17.22
2018-09-02T21:06:34.958Z,17.24
2018-09-02T21:09:05.766Z,17.28
2018-09-02T21:11:35.967Z,17.24
2018-09-02T21:14:05.105Z,17.23
2018-09-02T21:16:41.503Z,17.14
2018-09-02T21:19:18.009Z,17.18
2018-09-02T21:21:50.573Z,17.12
2018-09-02T21:24:21.896Z,16.92
2018-09-02T21:26:56.573Z,16.99
2018-09-02T21:29:25.473Z,16.88
2018-09-02T21:31:54.265Z,16.88
2018-09-02T21:34:22.897Z,16.80
2018-09-02T21:36:53.904Z,16.75
2018-09-02T21:39:25.029Z,16.91
2018-09-02T21:41:55.055Z,16.84
2018-09-02T21:44:23.864Z,16.76
2018-09-02T21:46:52.414Z,16.71
2018-09-02T21:49:20.913Z,16.77
2018-09-02T21:51:50.092Z,16.81
2018-09-02T21:54:18.789Z,16.87
2018-09-02T21:56:47.355Z,16.93
2018-09-02T21:59:15.912Z,16.91
2018-09-02T22:01:44.968Z,16.90
2018-09-02T22:04:13.523Z,16.92
2018-09-02T22:06:42.212Z,16.95
2018-09-02T22:09:14.045Z,16.89
2018-09-02T22:11:45.922Z,16.84
2018-09-02T22:14:15.119Z,16.75
2018-09-02T22:16:44.289Z,16.74
2018-09-02T22:19:12.960Z,16.87
2018-09-02T22:21:41.565Z,16.77
2018-09-02T22:24:10.101Z,16.75
2018-09-02T22:26:38.612Z,16.76
2018-09-02T22:29:07.201Z,16.81
2018-09-02T22:31:35.702Z,16.78
2018-09-02T22:34:04.249Z,16.75
2018-09-02T22:36:32.779Z,16.83
2018-09-02T22:39:01.316Z,16.81
2018-09-02T22:41:29.883Z,16.83
2018-09-02T22:43:58.477Z,16.90
2018-09-02T22:46:27.025Z,16.90
2018-09-02T22:48:55.574Z,16.84
2018-09-02T22:51:24.084Z,16.83
2018-09-02T22:53:52.898Z,16.76
2018-09-02T22:56:21.412Z,16.76
2018-09-02T22:58:49.944Z,16.77
2018-09-02T23:01:18.506Z,16.83
2018-09-02T23:03:47.042Z,16.82
2018-09-02T23:06:15.946Z,16.81
2018-09-02T23:08:45.440Z,16.86
2018-09-02T23:11:14.000Z,16.83
2018-09-02T23:13:42.536Z,16.76
2018-09-02T23:16:11.143Z,16.75
2018-09-02T23:18:40.788Z,16.64
2018-09-02T23:21:09.291Z,16.68
2018-09-02T23:23:38.174Z,16.59
2018-09-02T23:26:06.809Z,16.75
2018-09-02T23:28:35.403Z,16.69
2018-09-02T23:31:03.929Z,16.72
2018-09-02T23:33:32.460Z,16.61
2018-09-02T23:36:00.985Z,16.75
2018-09-02T23:38:29.529Z,16.66
2018-09-02T23:40:58.059Z,16.68
2018-09-02T23:43:26.593Z,16.68
2018-09-02T23:45:55.096Z,16.78
2018-09-02T23:48:23.640Z,16.74
2018-09-02T23:50:52.157Z,16.63
2018-09-02T23:53:20.685Z,16.68
2018-09-02T23:55:49.206Z,16.62
2018-09-02T23:58:17.752Z,16.56
